sensor_id;sensor_type;location;lat;lon;timestamp;P1;durP1;ratioP1;P2;durP2;ratioP2
85820;SDS011;76265;50.102;8.854;2024-03-08T00:02:24;11.82;;;7.15;;
85820;SDS011;76265;50.102;8.854;2024-03-08T00:04:51;15.73;;;8.27;;
85820;SDS011;76265;50.102;8.854;2024-03-08T00:07:18;15.23;;;7.65;;
85820;SDS011;76265;50.102;8.854;2024-03-08T00:09:46;16.17;;;7.47;;
85820;SDS011;76265;50.102;8.854;2024-03-08T00:12:13;12.80;;;6.93;;
85820;SDS011;76265;50.102;8.854;2024-03-08T00:14:40;13.93;;;6.47;;
85820;SDS011;76265;50.102;8.854;2024-03-08T00:17:07;16.30;;;6.25;;
85820;SDS011;76265;50.102;8.854;2024-03-08T00:19:34;13.75;;;7.90;;
85820;SDS011;76265;50.102;8.854;2024-03-08T00:22:02;14.10;;;7.32;;
85820;SDS011;76265;50.102;8.854;2024-03-08T00:24:29;12.23;;;6.88;;
85820;SDS011;76265;50.102;8.854;2024-03-08T00:26:57;11.43;;;7.25;;
85820;SDS011;76265;50.102;8.854;2024-03-08T00:29:24;12.25;;;6.43;;
85820;SDS011;76265;50.102;8.854;2024-03-08T00:31:51;16.48;;;8.18;;
85820;SDS011;76265;50.102;8.854;2024-03-08T00:34:18;12.98;;;6.47;;
85820;SDS011;76265;50.102;8.854;2024-03-08T00:36:45;15.70;;;7.60;;
85820;SDS011;76265;50.102;8.854;2024-03-08T00:39:13;13.38;;;7.13;;
85820;SDS011;76265;50.102;8.854;2024-03-08T00:41:40;17.88;;;8.32;;
85820;SDS011;76265;50.102;8.854;2024-03-08T00:44:08;16.58;;;8.30;;
85820;SDS011;76265;50.102;8.854;2024-03-08T00:46:35;14.70;;;6.82;;
85820;SDS011;76265;50.102;8.854;2024-03-08T00:49:03;11.98;;;6.53;;
85820;SDS011;76265;50.102;8.854;2024-03-08T00:51:30;17.83;;;7.35;;
85820;SDS011;76265;50.102;8.854;2024-03-08T00:53:57;14.80;;;7.32;;
85820;SDS011;76265;50.102;8.854;2024-03-08T00:56:24;12.77;;;6.50;;
85820;SDS011;76265;50.102;8.854;2024-03-08T00:58:51;13.57;;;6.63;;
85820;SDS011;76265;50.102;8.854;2024-03-08T01:01:20;14.73;;;7.53;;
85820;SDS011;76265;50.102;8.854;2024-03-08T01:03:47;20.45;;;8.63;;
85820;SDS011;76265;50.102;8.854;2024-03-08T01:06:14;12.43;;;6.65;;
85820;SDS011;76265;50.102;8.854;2024-03-08T01:08:41;13.68;;;6.57;;
85820;SDS011;76265;50.102;8.854;2024-03-08T01:11:08;12.73;;;6.65;;
85820;SDS011;76265;50.102;8.854;2024-03-08T01:13:36;15.25;;;7.68;;
85820;SDS011;76265;50.102;8.854;2024-03-08T01:16:04;15.55;;;7.22;;
85820;SDS011;76265;50.102;8.854;2024-03-08T01:18:33;14.13;;;7.72;;
85820;SDS011;76265;50.102;8.854;2024-03-08T01:21:00;15.10;;;7.28;;
85820;SDS011;76265;50.102;8.854;2024-03-08T01:23:27;14.57;;;7.30;;
85820;SDS011;76265;50.102;8.854;2024-03-08T01:25:55;12.20;;;6.78;;
85820;SDS011;76265;50.102;8.854;2024-03-08T01:28:23;10.23;;;6.85;;
85820;SDS011;76265;50.102;8.854;2024-03-08T01:30:50;13.82;;;6.20;;
85820;SDS011;76265;50.102;8.854;2024-03-08T01:33:22;15.15;;;7.63;;
85820;SDS011;76265;50.102;8.854;2024-03-08T01:35:50;16.58;;;7.47;;
85820;SDS011;76265;50.102;8.854;2024-03-08T01:38:18;16.20;;;7.03;;
85820;SDS011;76265;50.102;8.854;2024-03-08T01:40:46;13.80;;;8.15;;
85820;SDS011;76265;50.102;8.854;2024-03-08T01:43:17;15.07;;;6.68;;
85820;SDS011;76265;50.102;8.854;2024-03-08T01:45:45;14.80;;;7.35;;
85820;SDS011;76265;50.102;8.854;2024-03-08T01:48:12;15.30;;;7.65;;
85820;SDS011;76265;50.102;8.854;2024-03-08T01:50:40;13.07;;;6.97;;
85820;SDS011;76265;50.102;8.854;2024-03-08T01:53:09;19.33;;;8.43;;
85820;SDS011;76265;50.102;8.854;2024-03-08T01:55:38;19.25;;;7.55;;
85820;SDS011;76265;50.102;8.854;2024-03-08T01:58:06;11.95;;;5.82;;
85820;SDS011;76265;50.102;8.854;2024-03-08T02:00:34;13.73;;;6.55;;
85820;SDS011;76265;50.102;8.854;2024-03-08T02:03:04;15.98;;;7.72;;
85820;SDS011;76265;50.102;8.854;2024-03-08T02:05:31;12.73;;;7.35;;
85820;SDS011;76265;50.102;8.854;2024-03-08T02:07:58;19.20;;;8.27;;
85820;SDS011;76265;50.102;8.854;2024-03-08T02:10:27;19.02;;;7.97;;
85820;SDS011;76265;50.102;8.854;2024-03-08T02:12:53;13.48;;;7.22;;
85820;SDS011;76265;50.102;8.854;2024-03-08T02:15:22;13.82;;;6.88;;
85820;SDS011;76265;50.102;8.854;2024-03-08T02:17:49;15.18;;;6.82;;
85820;SDS011;76265;50.102;8.854;2024-03-08T02:20:15;12.48;;;6.60;;
85820;SDS011;76265;50.102;8.854;2024-03-08T02:22:46;14.32;;;8.05;;
85820;SDS011;76265;50.102;8.854;2024-03-08T02:25:13;15.13;;;7.88;;
85820;SDS011;76265;50.102;8.854;2024-03-08T02:27:41;15.02;;;7.47;;
85820;SDS011;76265;50.102;8.854;2024-03-08T02:30:09;17.08;;;7.80;;
85820;SDS011;76265;50.102;8.854;2024-03-08T02:32:38;15.55;;;7.28;;
85820;SDS011;76265;50.102;8.854;2024-03-08T02:35:05;18.52;;;7.30;;
85820;SDS011;76265;50.102;8.854;2024-03-08T02:37:32;14.45;;;7.63;;
85820;SDS011;76265;50.102;8.854;2024-03-08T02:40:01;15.23;;;7.70;;
85820;SDS011;76265;50.102;8.854;2024-03-08T02:42:28;17.40;;;8.52;;
85820;SDS011;76265;50.102;8.854;2024-03-08T02:44:55;18.85;;;8.48;;
85820;SDS011;76265;50.102;8.854;2024-03-08T02:47:22;22.13;;;8.15;;
85820;SDS011;76265;50.102;8.854;2024-03-08T02:49:49;14.48;;;7.57;;
85820;SDS011;76265;50.102;8.854;2024-03-08T02:52:16;20.08;;;7.40;;
85820;SDS011;76265;50.102;8.854;2024-03-08T02:54:46;23.17;;;8.75;;
85820;SDS011;76265;50.102;8.854;2024-03-08T02:57:14;20.02;;;8.55;;
85820;SDS011;76265;50.102;8.854;2024-03-08T02:59:42;19.52;;;8.48;;
85820;SDS011;76265;50.102;8.854;2024-03-08T03:02:09;19.15;;;8.02;;
85820;SDS011;76265;50.102;8.854;2024-03-08T03:04:39;18.90;;;8.48;;
85820;SDS011;76265;50.102;8.854;2024-03-08T03:07:06;16.70;;;6.82;;
85820;SDS011;76265;50.102;8.854;2024-03-08T03:09:33;16.35;;;8.00;;
85820;SDS011;76265;50.102;8.854;2024-03-08T03:12:00;20.83;;;9.25;;
85820;SDS011;76265;50.102;8.854;2024-03-08T03:14:29;14.52;;;7.65;;
85820;SDS011;76265;50.102;8.854;2024-03-08T03:16:56;16.60;;;7.85;;
85820;SDS011;76265;50.102;8.854;2024-03-08T03:19:23;17.00;;;8.43;;
85820;SDS011;76265;50.102;8.854;2024-03-08T03:21:50;14.63;;;7.22;;
85820;SDS011;76265;50.102;8.854;2024-03-08T03:24:18;15.98;;;8.75;;
85820;SDS011;76265;50.102;8.854;2024-03-08T03:26:46;19.45;;;8.07;;
85820;SDS011;76265;50.102;8.854;2024-03-08T03:29:15;11.75;;;7.28;;
85820;SDS011;76265;50.102;8.854;2024-03-08T03:31:44;17.15;;;8.15;;
85820;SDS011;76265;50.102;8.854;2024-03-08T03:34:12;17.15;;;8.23;;
85820;SDS011;76265;50.102;8.854;2024-03-08T03:36:39;21.65;;;8.15;;
85820;SDS011;76265;50.102;8.854;2024-03-08T03:39:08;14.68;;;8.43;;
85820;SDS011;76265;50.102;8.854;2024-03-08T03:41:38;16.08;;;8.13;;
85820;SDS011;76265;50.102;8.854;2024-03-08T03:44:05;15.77;;;7.55;;
85820;SDS011;76265;50.102;8.854;2024-03-08T03:46:33;19.95;;;9.00;;
85820;SDS011;76265;50.102;8.854;2024-03-08T03:49:02;17.02;;;7.80;;
85820;SDS011;76265;50.102;8.854;2024-03-08T03:51:30;15.57;;;7.93;;
85820;SDS011;76265;50.102;8.854;2024-03-08T03:53:57;16.60;;;8.10;;
85820;SDS011;76265;50.102;8.854;2024-03-08T03:56:27;21.42;;;9.45;;
85820;SDS011;76265;50.102;8.854;2024-03-08T03:58:54;13.98;;;6.47;;
85820;SDS011;76265;50.102;8.854;2024-03-08T04:01:21;19.02;;;8.57;;
85820;SDS011;76265;50.102;8.854;2024-03-08T04:03:48;13.60;;;7.82;;
85820;SDS011;76265;50.102;8.854;2024-03-08T04:06:16;16.35;;;8.63;;
85820;SDS011;76265;50.102;8.854;2024-03-08T04:08:43;17.30;;;8.25;;
85820;SDS011;76265;50.102;8.854;2024-03-08T04:11:10;19.85;;;8.35;;
85820;SDS011;76265;50.102;8.854;2024-03-08T04:13:37;14.05;;;7.80;;
85820;SDS011;76265;50.102;8.854;2024-03-08T04:16:04;18.13;;;8.38;;
85820;SDS011;76265;50.102;8.854;2024-03-08T04:18:33;19.98;;;8.25;;
85820;SDS011;76265;50.102;8.854;2024-03-08T04:21:03;21.27;;;8.65;;
85820;SDS011;76265;50.102;8.854;2024-03-08T04:23:35;17.45;;;7.93;;
85820;SDS011;76265;50.102;8.854;2024-03-08T04:26:02;19.27;;;8.50;;
85820;SDS011;76265;50.102;8.854;2024-03-08T04:28:30;20.23;;;9.02;;
85820;SDS011;76265;50.102;8.854;2024-03-08T04:30:56;17.25;;;9.82;;
85820;SDS011;76265;50.102;8.854;2024-03-08T04:33:26;16.52;;;8.95;;
85820;SDS011;76265;50.102;8.854;2024-03-08T04:35:53;18.83;;;9.13;;
85820;SDS011;76265;50.102;8.854;2024-03-08T04:38:20;22.30;;;9.07;;
85820;SDS011;76265;50.102;8.854;2024-03-08T04:40:49;19.48;;;9.50;;
85820;SDS011;76265;50.102;8.854;2024-03-08T04:43:16;17.83;;;7.30;;
85820;SDS011;76265;50.102;8.854;2024-03-08T04:45:46;17.17;;;8.70;;
85820;SDS011;76265;50.102;8.854;2024-03-08T04:48:14;17.42;;;8.68;;
85820;SDS011;76265;50.102;8.854;2024-03-08T04:50:41;17.38;;;8.15;;
85820;SDS011;76265;50.102;8.854;2024-03-08T04:53:08;18.17;;;8.88;;
85820;SDS011;76265;50.102;8.854;2024-03-08T04:55:35;17.48;;;7.88;;
85820;SDS011;76265;50.102;8.854;2024-03-08T04:58:04;14.48;;;8.07;;
85820;SDS011;76265;50.102;8.854;2024-03-08T05:00:33;17.98;;;7.95;;
85820;SDS011;76265;50.102;8.854;2024-03-08T05:03:00;19.00;;;8.63;;
85820;SDS011;76265;50.102;8.854;2024-03-08T05:05:27;11.88;;;6.60;;
85820;SDS011;76265;50.102;8.854;2024-03-08T05:07:55;16.20;;;7.30;;
85820;SDS011;76265;50.102;8.854;2024-03-08T05:10:23;15.05;;;8.05;;
85820;SDS011;76265;50.102;8.854;2024-03-08T05:12:50;20.95;;;8.18;;
85820;SDS011;76265;50.102;8.854;2024-03-08T05:15:19;17.85;;;9.07;;
85820;SDS011;76265;50.102;8.854;2024-03-08T05:17:47;20.48;;;9.07;;
85820;SDS011;76265;50.102;8.854;2024-03-08T05:20:14;18.83;;;7.20;;
85820;SDS011;76265;50.102;8.854;2024-03-08T05:22:42;17.95;;;7.90;;
85820;SDS011;76265;50.102;8.854;2024-03-08T05:25:10;19.98;;;8.73;;
85820;SDS011;76265;50.102;8.854;2024-03-08T05:27:37;18.88;;;7.72;;
85820;SDS011;76265;50.102;8.854;2024-03-08T05:30:05;23.60;;;8.75;;
85820;SDS011;76265;50.102;8.854;2024-03-08T05:32:34;19.73;;;8.10;;
85820;SDS011;76265;50.102;8.854;2024-03-08T05:35:00;20.85;;;9.35;;
85820;SDS011;76265;50.102;8.854;2024-03-08T05:37:32;16.10;;;8.07;;
85820;SDS011;76265;50.102;8.854;2024-03-08T05:39:59;23.75;;;9.05;;
85820;SDS011;76265;50.102;8.854;2024-03-08T05:42:26;13.98;;;7.15;;
85820;SDS011;76265;50.102;8.854;2024-03-08T05:44:54;17.67;;;8.30;;
85820;SDS011;76265;50.102;8.854;2024-03-08T05:47:22;20.10;;;8.90;;
85820;SDS011;76265;50.102;8.854;2024-03-08T05:49:51;15.95;;;8.32;;
85820;SDS011;76265;50.102;8.854;2024-03-08T05:52:19;21.23;;;9.90;;
85820;SDS011;76265;50.102;8.854;2024-03-08T05:54:46;29.05;;;11.07;;
85820;SDS011;76265;50.102;8.854;2024-03-08T05:57:13;20.05;;;9.23;;
85820;SDS011;76265;50.102;8.854;2024-03-08T05:59:40;24.08;;;8.77;;
85820;SDS011;76265;50.102;8.854;2024-03-08T06:02:07;19.33;;;8.88;;
85820;SDS011;76265;50.102;8.854;2024-03-08T06:04:34;19.30;;;10.45;;
85820;SDS011;76265;50.102;8.854;2024-03-08T06:07:02;18.95;;;8.70;;
85820;SDS011;76265;50.102;8.854;2024-03-08T06:09:29;19.05;;;8.90;;
85820;SDS011;76265;50.102;8.854;2024-03-08T06:11:56;22.40;;;10.32;;
85820;SDS011;76265;50.102;8.854;2024-03-08T06:14:23;21.80;;;10.88;;
85820;SDS011;76265;50.102;8.854;2024-03-08T06:16:50;21.45;;;10.32;;
85820;SDS011;76265;50.102;8.854;2024-03-08T06:19:17;17.33;;;8.65;;
85820;SDS011;76265;50.102;8.854;2024-03-08T06:21:44;25.13;;;10.40;;
85820;SDS011;76265;50.102;8.854;2024-03-08T06:24:13;20.63;;;10.88;;
85820;SDS011;76265;50.102;8.854;2024-03-08T06:26:40;22.40;;;10.48;;
85820;SDS011;76265;50.102;8.854;2024-03-08T06:29:08;19.63;;;9.65;;
85820;SDS011;76265;50.102;8.854;2024-03-08T06:31:35;18.23;;;9.65;;
85820;SDS011;76265;50.102;8.854;2024-03-08T06:34:04;21.77;;;9.40;;
85820;SDS011;76265;50.102;8.854;2024-03-08T06:36:33;21.13;;;9.80;;
85820;SDS011;76265;50.102;8.854;2024-03-08T06:39:00;21.35;;;9.32;;
85820;SDS011;76265;50.102;8.854;2024-03-08T06:41:36;17.30;;;9.38;;
85820;SDS011;76265;50.102;8.854;2024-03-08T06:44:03;17.38;;;8.75;;
85820;SDS011;76265;50.102;8.854;2024-03-08T06:46:30;20.75;;;9.50;;
85820;SDS011;76265;50.102;8.854;2024-03-08T06:48:57;24.27;;;9.93;;
85820;SDS011;76265;50.102;8.854;2024-03-08T06:51:24;19.65;;;9.23;;
85820;SDS011;76265;50.102;8.854;2024-03-08T06:53:51;18.80;;;9.57;;
85820;SDS011;76265;50.102;8.854;2024-03-08T06:56:18;21.00;;;9.20;;
85820;SDS011;76265;50.102;8.854;2024-03-08T06:58:47;20.05;;;9.18;;
85820;SDS011;76265;50.102;8.854;2024-03-08T07:01:15;19.70;;;10.35;;
85820;SDS011;76265;50.102;8.854;2024-03-08T07:03:43;24.75;;;11.10;;
85820;SDS011;76265;50.102;8.854;2024-03-08T07:06:10;22.95;;;10.05;;
85820;SDS011;76265;50.102;8.854;2024-03-08T07:08:37;24.30;;;10.52;;
85820;SDS011;76265;50.102;8.854;2024-03-08T07:11:04;22.52;;;10.32;;
85820;SDS011;76265;50.102;8.854;2024-03-08T07:13:31;21.30;;;10.18;;
85820;SDS011;76265;50.102;8.854;2024-03-08T07:16:00;22.67;;;10.15;;
85820;SDS011;76265;50.102;8.854;2024-03-08T07:18:27;19.92;;;9.23;;
85820;SDS011;76265;50.102;8.854;2024-03-08T07:20:55;24.55;;;10.30;;
85820;SDS011;76265;50.102;8.854;2024-03-08T07:23:22;20.23;;;9.48;;
85820;SDS011;76265;50.102;8.854;2024-03-08T07:26:15;19.52;;;9.38;;
85820;SDS011;76265;50.102;8.854;2024-03-08T07:28:44;16.92;;;9.27;;
85820;SDS011;76265;50.102;8.854;2024-03-08T07:31:12;18.85;;;10.27;;
85820;SDS011;76265;50.102;8.854;2024-03-08T07:33:47;20.52;;;9.43;;
85820;SDS011;76265;50.102;8.854;2024-03-08T07:36:16;18.50;;;8.60;;
85820;SDS011;76265;50.102;8.854;2024-03-08T07:38:43;21.58;;;9.82;;
85820;SDS011;76265;50.102;8.854;2024-03-08T07:41:12;20.63;;;9.48;;
85820;SDS011;76265;50.102;8.854;2024-03-08T07:43:39;17.60;;;9.40;;
85820;SDS011;76265;50.102;8.854;2024-03-08T07:46:06;18.92;;;8.98;;
85820;SDS011;76265;50.102;8.854;2024-03-08T07:48:37;18.50;;;9.82;;
85820;SDS011;76265;50.102;8.854;2024-03-08T07:51:05;15.70;;;8.73;;
85820;SDS011;76265;50.102;8.854;2024-03-08T07:53:35;19.15;;;9.27;;
85820;SDS011;76265;50.102;8.854;2024-03-08T07:56:02;19.50;;;8.98;;
85820;SDS011;76265;50.102;8.854;2024-03-08T07:58:30;18.33;;;9.15;;
85820;SDS011;76265;50.102;8.854;2024-03-08T08:00:57;17.95;;;9.80;;
85820;SDS011;76265;50.102;8.854;2024-03-08T08:03:24;17.40;;;9.38;;
85820;SDS011;76265;50.102;8.854;2024-03-08T08:05:54;22.17;;;9.80;;
85820;SDS011;76265;50.102;8.854;2024-03-08T08:08:21;19.17;;;9.35;;
85820;SDS011;76265;50.102;8.854;2024-03-08T08:10:48;17.88;;;9.25;;
85820;SDS011;76265;50.102;8.854;2024-03-08T08:13:15;17.55;;;9.68;;
85820;SDS011;76265;50.102;8.854;2024-03-08T08:15:43;19.35;;;8.80;;
85820;SDS011;76265;50.102;8.854;2024-03-08T08:18:11;18.05;;;8.30;;
85820;SDS011;76265;50.102;8.854;2024-03-08T08:20:39;18.90;;;9.02;;
85820;SDS011;76265;50.102;8.854;2024-03-08T08:23:08;19.42;;;8.98;;
85820;SDS011;76265;50.102;8.854;2024-03-08T08:25:37;18.38;;;9.45;;
85820;SDS011;76265;50.102;8.854;2024-03-08T08:28:05;21.58;;;10.20;;
85820;SDS011;76265;50.102;8.854;2024-03-08T08:30:32;15.18;;;8.85;;
85820;SDS011;76265;50.102;8.854;2024-03-08T08:32:59;17.58;;;8.80;;
85820;SDS011;76265;50.102;8.854;2024-03-08T08:35:26;18.25;;;9.95;;
85820;SDS011;76265;50.102;8.854;2024-03-08T08:37:54;15.45;;;9.00;;
85820;SDS011;76265;50.102;8.854;2024-03-08T08:40:23;21.73;;;9.55;;
85820;SDS011;76265;50.102;8.854;2024-03-08T08:42:50;16.50;;;9.52;;
85820;SDS011;76265;50.102;8.854;2024-03-08T08:45:18;18.58;;;8.80;;
85820;SDS011;76265;50.102;8.854;2024-03-08T08:47:45;18.05;;;9.55;;
85820;SDS011;76265;50.102;8.854;2024-03-08T08:50:12;16.27;;;8.48;;
85820;SDS011;76265;50.102;8.854;2024-03-08T08:52:39;16.02;;;7.65;;
85820;SDS011;76265;50.102;8.854;2024-03-08T08:55:09;14.70;;;7.18;;
85820;SDS011;76265;50.102;8.854;2024-03-08T08:57:41;16.60;;;8.57;;
85820;SDS011;76265;50.102;8.854;2024-03-08T09:00:08;17.15;;;8.93;;
85820;SDS011;76265;50.102;8.854;2024-03-08T09:02:40;15.02;;;7.93;;
85820;SDS011;76265;50.102;8.854;2024-03-08T09:05:07;16.58;;;8.93;;
85820;SDS011;76265;50.102;8.854;2024-03-08T09:07:34;15.13;;;8.38;;
85820;SDS011;76265;50.102;8.854;2024-03-08T09:10:02;17.92;;;8.43;;
85820;SDS011;76265;50.102;8.854;2024-03-08T09:12:29;15.23;;;8.32;;
85820;SDS011;76265;50.102;8.854;2024-03-08T09:14:59;13.02;;;7.38;;
85820;SDS011;76265;50.102;8.854;2024-03-08T09:17:26;14.93;;;7.88;;
85820;SDS011;76265;50.102;8.854;2024-03-08T09:19:53;13.98;;;6.95;;
85820;SDS011;76265;50.102;8.854;2024-03-08T09:22:20;11.23;;;7.20;;
85820;SDS011;76265;50.102;8.854;2024-03-08T09:24:48;14.18;;;7.85;;
85820;SDS011;76265;50.102;8.854;2024-03-08T09:27:15;11.52;;;6.95;;
85820;SDS011;76265;50.102;8.854;2024-03-08T09:29:42;15.40;;;7.82;;
85820;SDS011;76265;50.102;8.854;2024-03-08T09:32:11;13.50;;;7.32;;
85820;SDS011;76265;50.102;8.854;2024-03-08T09:34:38;14.65;;;7.03;;
85820;SDS011;76265;50.102;8.854;2024-03-08T09:37:06;13.77;;;7.13;;
85820;SDS011;76265;50.102;8.854;2024-03-08T09:39:34;19.60;;;8.05;;
85820;SDS011;76265;50.102;8.854;2024-03-08T09:42:01;14.45;;;7.57;;
85820;SDS011;76265;50.102;8.854;2024-03-08T09:44:29;12.93;;;6.88;;
85820;SDS011;76265;50.102;8.854;2024-03-08T09:46:56;14.90;;;7.63;;
85820;SDS011;76265;50.102;8.854;2024-03-08T09:49:26;11.32;;;6.88;;
85820;SDS011;76265;50.102;8.854;2024-03-08T09:51:53;11.55;;;6.50;;
85820;SDS011;76265;50.102;8.854;2024-03-08T09:54:21;15.68;;;7.38;;
85820;SDS011;76265;50.102;8.854;2024-03-08T09:56:50;14.93;;;7.72;;
85820;SDS011;76265;50.102;8.854;2024-03-08T09:59:18;11.60;;;7.07;;
85820;SDS011;76265;50.102;8.854;2024-03-08T10:02:11;15.10;;;7.38;;
85820;SDS011;76265;50.102;8.854;2024-03-08T10:04:42;12.00;;;7.03;;
85820;SDS011;76265;50.102;8.854;2024-03-08T10:07:12;11.05;;;6.95;;
85820;SDS011;76265;50.102;8.854;2024-03-08T10:09:40;14.00;;;7.57;;
85820;SDS011;76265;50.102;8.854;2024-03-08T10:12:12;13.18;;;7.22;;
85820;SDS011;76265;50.102;8.854;2024-03-08T10:14:40;12.90;;;7.28;;
85820;SDS011;76265;50.102;8.854;2024-03-08T10:17:08;14.00;;;7.18;;
85820;SDS011;76265;50.102;8.854;2024-03-08T10:19:35;11.10;;;7.03;;
85820;SDS011;76265;50.102;8.854;2024-03-08T10:22:03;13.88;;;7.07;;
85820;SDS011;76265;50.102;8.854;2024-03-08T10:24:32;11.15;;;6.47;;
85820;SDS011;76265;50.102;8.854;2024-03-08T10:27:00;12.75;;;7.43;;
85820;SDS011;76265;50.102;8.854;2024-03-08T10:29:30;13.05;;;7.45;;
85820;SDS011;76265;50.102;8.854;2024-03-08T10:31:58;10.70;;;7.05;;
85820;SDS011;76265;50.102;8.854;2024-03-08T10:34:25;11.45;;;6.70;;
85820;SDS011;76265;50.102;8.854;2024-03-08T10:36:52;10.60;;;6.55;;
85820;SDS011;76265;50.102;8.854;2024-03-08T10:39:24;10.38;;;6.43;;
85820;SDS011;76265;50.102;8.854;2024-03-08T10:41:52;14.98;;;6.95;;
85820;SDS011;76265;50.102;8.854;2024-03-08T10:44:36;12.93;;;6.22;;
85820;SDS011;76265;50.102;8.854;2024-03-08T10:47:13;13.32;;;7.15;;
85820;SDS011;76265;50.102;8.854;2024-03-08T10:49:49;10.95;;;6.35;;
85820;SDS011;76265;50.102;8.854;2024-03-08T10:52:19;14.10;;;7.70;;
85820;SDS011;76265;50.102;8.854;2024-03-08T10:54:47;13.27;;;6.10;;
85820;SDS011;76265;50.102;8.854;2024-03-08T10:57:15;11.40;;;7.30;;
85820;SDS011;76265;50.102;8.854;2024-03-08T10:59:45;9.95;;;6.80;;
85820;SDS011;76265;50.102;8.854;2024-03-08T11:02:15;11.13;;;7.03;;
85820;SDS011;76265;50.102;8.854;2024-03-08T11:04:47;12.07;;;7.28;;
85820;SDS011;76265;50.102;8.854;2024-03-08T11:07:15;10.75;;;6.85;;
85820;SDS011;76265;50.102;8.854;2024-03-08T11:09:48;13.05;;;7.38;;
85820;SDS011;76265;50.102;8.854;2024-03-08T11:12:19;13.07;;;7.72;;
85820;SDS011;76265;50.102;8.854;2024-03-08T11:14:55;12.73;;;7.43;;
85820;SDS011;76265;50.102;8.854;2024-03-08T11:20:14;9.63;;;6.90;;
85820;SDS011;76265;50.102;8.854;2024-03-08T11:22:49;12.32;;;6.95;;
85820;SDS011;76265;50.102;8.854;2024-03-08T11:25:32;10.60;;;6.70;;
85820;SDS011;76265;50.102;8.854;2024-03-08T11:30:45;11.50;;;6.72;;
85820;SDS011;76265;50.102;8.854;2024-03-08T11:33:14;10.55;;;6.45;;
85820;SDS011;76265;50.102;8.854;2024-03-08T11:35:43;10.68;;;7.00;;
85820;SDS011;76265;50.102;8.854;2024-03-08T11:38:11;11.88;;;7.38;;
85820;SDS011;76265;50.102;8.854;2024-03-08T11:40:41;11.63;;;7.18;;
85820;SDS011;76265;50.102;8.854;2024-03-08T11:43:08;12.77;;;7.60;;
85820;SDS011;76265;50.102;8.854;2024-03-08T11:45:36;13.80;;;8.25;;
85820;SDS011;76265;50.102;8.854;2024-03-08T11:48:04;12.95;;;7.05;;
85820;SDS011;76265;50.102;8.854;2024-03-08T11:50:31;11.73;;;7.70;;
85820;SDS011;76265;50.102;8.854;2024-03-08T11:53:02;11.02;;;7.93;;
85820;SDS011;76265;50.102;8.854;2024-03-08T11:55:30;11.13;;;7.10;;
85820;SDS011;76265;50.102;8.854;2024-03-08T11:58:03;12.95;;;7.90;;
85820;SDS011;76265;50.102;8.854;2024-03-08T12:00:33;11.75;;;8.00;;
85820;SDS011;76265;50.102;8.854;2024-03-08T12:03:04;10.07;;;6.88;;
85820;SDS011;76265;50.102;8.854;2024-03-08T12:05:32;11.90;;;7.80;;
85820;SDS011;76265;50.102;8.854;2024-03-08T12:08:00;10.38;;;7.47;;
85820;SDS011;76265;50.102;8.854;2024-03-08T12:10:28;11.80;;;7.55;;
85820;SDS011;76265;50.102;8.854;2024-03-08T12:12:56;10.75;;;7.13;;
85820;SDS011;76265;50.102;8.854;2024-03-08T12:15:27;13.40;;;7.63;;
85820;SDS011;76265;50.102;8.854;2024-03-08T12:17:55;11.77;;;8.43;;
85820;SDS011;76265;50.102;8.854;2024-03-08T12:20:23;13.57;;;7.57;;
85820;SDS011;76265;50.102;8.854;2024-03-08T12:22:52;12.50;;;8.27;;
85820;SDS011;76265;50.102;8.854;2024-03-08T12:25:22;11.55;;;7.70;;
85820;SDS011;76265;50.102;8.854;2024-03-08T12:27:52;13.48;;;7.82;;
85820;SDS011;76265;50.102;8.854;2024-03-08T12:30:22;9.93;;;7.13;;
85820;SDS011;76265;50.102;8.854;2024-03-08T12:32:54;11.10;;;7.43;;
85820;SDS011;76265;50.102;8.854;2024-03-08T12:35:23;12.85;;;7.97;;
85820;SDS011;76265;50.102;8.854;2024-03-08T12:37:52;11.93;;;8.18;;
85820;SDS011;76265;50.102;8.854;2024-03-08T12:40:25;11.52;;;8.15;;
85820;SDS011;76265;50.102;8.854;2024-03-08T12:42:54;15.20;;;9.02;;
85820;SDS011;76265;50.102;8.854;2024-03-08T12:45:21;14.93;;;8.77;;
85820;SDS011;76265;50.102;8.854;2024-03-08T12:47:50;12.95;;;7.80;;
85820;SDS011;76265;50.102;8.854;2024-03-08T12:50:18;12.38;;;7.97;;
85820;SDS011;76265;50.102;8.854;2024-03-08T12:52:45;12.10;;;7.78;;
85820;SDS011;76265;50.102;8.854;2024-03-08T12:55:14;12.48;;;8.75;;
85820;SDS011;76265;50.102;8.854;2024-03-08T12:57:44;12.70;;;8.05;;
85820;SDS011;76265;50.102;8.854;2024-03-08T13:00:12;10.65;;;7.82;;
85820;SDS011;76265;50.102;8.854;2024-03-08T13:02:44;11.75;;;7.72;;
85820;SDS011;76265;50.102;8.854;2024-03-08T13:05:11;14.15;;;8.23;;
85820;SDS011;76265;50.102;8.854;2024-03-08T13:07:41;10.45;;;7.65;;
85820;SDS011;76265;50.102;8.854;2024-03-08T13:10:11;13.48;;;8.57;;
85820;SDS011;76265;50.102;8.854;2024-03-08T13:12:40;13.02;;;8.82;;
85820;SDS011;76265;50.102;8.854;2024-03-08T13:15:08;12.07;;;7.55;;
85820;SDS011;76265;50.102;8.854;2024-03-08T13:17:37;11.30;;;7.40;;
85820;SDS011;76265;50.102;8.854;2024-03-08T13:20:06;12.70;;;8.23;;
85820;SDS011;76265;50.102;8.854;2024-03-08T13:22:34;12.15;;;8.27;;
85820;SDS011;76265;50.102;8.854;2024-03-08T13:25:05;10.68;;;7.43;;
85820;SDS011;76265;50.102;8.854;2024-03-08T13:27:33;12.05;;;7.72;;
85820;SDS011;76265;50.102;8.854;2024-03-08T13:30:00;11.60;;;7.88;;
85820;SDS011;76265;50.102;8.854;2024-03-08T13:32:28;11.00;;;7.88;;
85820;SDS011;76265;50.102;8.854;2024-03-08T13:34:56;11.00;;;7.68;;
85820;SDS011;76265;50.102;8.854;2024-03-08T13:37:23;11.73;;;8.00;;
85820;SDS011;76265;50.102;8.854;2024-03-08T13:39:51;12.15;;;7.78;;
85820;SDS011;76265;50.102;8.854;2024-03-08T13:42:20;10.55;;;7.25;;
85820;SDS011;76265;50.102;8.854;2024-03-08T13:44:48;10.82;;;7.43;;
85820;SDS011;76265;50.102;8.854;2024-03-08T13:47:16;12.27;;;8.38;;
85820;SDS011;76265;50.102;8.854;2024-03-08T13:49:44;11.57;;;7.68;;
85820;SDS011;76265;50.102;8.854;2024-03-08T13:52:11;13.00;;;7.95;;
85820;SDS011;76265;50.102;8.854;2024-03-08T13:54:42;9.57;;;7.18;;
85820;SDS011;76265;50.102;8.854;2024-03-08T13:57:09;11.02;;;7.70;;
85820;SDS011;76265;50.102;8.854;2024-03-08T13:59:38;11.95;;;8.50;;
85820;SDS011;76265;50.102;8.854;2024-03-08T14:02:06;12.55;;;7.95;;
85820;SDS011;76265;50.102;8.854;2024-03-08T14:04:35;10.35;;;7.68;;
85820;SDS011;76265;50.102;8.854;2024-03-08T14:07:03;13.20;;;8.20;;
85820;SDS011;76265;50.102;8.854;2024-03-08T14:09:33;11.05;;;7.40;;
85820;SDS011;76265;50.102;8.854;2024-03-08T14:12:03;11.43;;;6.95;;
85820;SDS011;76265;50.102;8.854;2024-03-08T14:14:32;11.90;;;7.75;;
85820;SDS011;76265;50.102;8.854;2024-03-08T14:17:02;12.82;;;8.23;;
85820;SDS011;76265;50.102;8.854;2024-03-08T14:19:29;12.20;;;8.30;;
85820;SDS011;76265;50.102;8.854;2024-03-08T14:21:57;13.80;;;8.35;;
85820;SDS011;76265;50.102;8.854;2024-03-08T14:24:25;11.98;;;8.32;;
85820;SDS011;76265;50.102;8.854;2024-03-08T14:26:52;13.95;;;7.70;;
85820;SDS011;76265;50.102;8.854;2024-03-08T14:29:19;12.77;;;8.18;;
85820;SDS011;76265;50.102;8.854;2024-03-08T14:31:46;11.27;;;7.53;;
85820;SDS011;76265;50.102;8.854;2024-03-08T14:34:14;13.60;;;7.47;;
85820;SDS011;76265;50.102;8.854;2024-03-08T14:36:42;12.18;;;8.00;;
85820;SDS011;76265;50.102;8.854;2024-03-08T14:39:10;12.55;;;8.35;;
85820;SDS011;76265;50.102;8.854;2024-03-08T14:41:37;13.25;;;7.75;;
85820;SDS011;76265;50.102;8.854;2024-03-08T14:44:04;11.07;;;7.50;;
85820;SDS011;76265;50.102;8.854;2024-03-08T14:46:31;10.27;;;7.15;;